createdAt,value
2023-09-07T00:00:19.252Z,20.29
2023-09-07T00:02:47.509Z,20.30
2023-09-07T00:05:15.605Z,20.32
2023-09-07T00:07:43.059Z,20.27
2023-09-07T00:10:10.775Z,20.25
2023-09-07T00:12:40.618Z,20.19
2023-09-07T00:15:08.816Z,20.17
2023-09-07T00:17:36.278Z,20.16
2023-09-07T00:20:12.025Z,20.14
2023-09-07T00:22:39.511Z,20.11
2023-09-07T00:25:08.131Z,20.10
2023-09-07T00:27:35.725Z,20.03
2023-09-07T00:30:06.101Z,20.00
2023-09-07T00:32:34.855Z,19.99
2023-09-07T00:35:02.382Z,19.89
2023-09-07T00:37:29.958Z,19.55
2023-09-07T00:39:57.549Z,19.28
2023-09-07T00:42:25.022Z,19.37
2023-09-07T00:44:52.541Z,19.60
2023-09-07T00:47:20.146Z,19.68
2023-09-07T00:49:47.858Z,19.77
2023-09-07T00:52:15.332Z,19.83
2023-09-07T00:54:43.777Z,19.78
2023-09-07T00:57:11.569Z,19.80
2023-09-07T00:59:39.058Z,19.72
2023-09-07T01:02:09.241Z,19.72
2023-09-07T01:04:36.998Z,19.67
2023-09-07T01:07:15.110Z,19.67
2023-09-07T01:09:44.735Z,19.59
2023-09-07T01:12:16.348Z,19.59
2023-09-07T01:14:44.240Z,19.49
2023-09-07T01:17:13.238Z,19.10
2023-09-07T01:19:41.443Z,19.23
2023-09-07T01:22:10.627Z,18.97
2023-09-07T01:24:40.110Z,18.92
2023-09-07T01:27:07.932Z,18.88
2023-09-07T01:29:35.491Z,18.79
2023-09-07T01:32:03.352Z,18.91
2023-09-07T01:34:30.871Z,19.21
2023-09-07T01:36:58.278Z,19.32
2023-09-07T01:39:25.710Z,19.17
2023-09-07T01:41:53.238Z,19.08
2023-09-07T01:44:21.046Z,19.24
2023-09-07T01:46:48.536Z,19.36
2023-09-07T01:49:15.943Z,19.34
2023-09-07T01:51:43.490Z,19.29
2023-09-07T01:54:11.781Z,19.01
2023-09-07T01:56:42.764Z,18.96
2023-09-07T01:59:10.363Z,18.84
2023-09-07T02:01:38.953Z,18.64
2023-09-07T02:04:06.463Z,18.68
2023-09-07T02:06:33.956Z,18.93
2023-09-07T02:09:01.563Z,18.85
2023-09-07T02:11:29.112Z,18.98
2023-09-07T02:13:56.520Z,19.10
2023-09-07T02:16:24.092Z,19.08
2023-09-07T02:18:52.050Z,19.06
2023-09-07T02:21:19.529Z,19.05
2023-09-07T02:23:46.982Z,19.09
2023-09-07T02:26:14.502Z,19.06
2023-09-07T02:28:42.282Z,19.02
2023-09-07T02:31:09.897Z,18.92
2023-09-07T02:33:37.436Z,18.88
2023-09-07T02:36:05.507Z,18.88
2023-09-07T02:38:33.177Z,18.82
2023-09-07T02:41:00.896Z,18.83
2023-09-07T02:43:28.606Z,18.81
2023-09-07T02:45:55.990Z,18.83
2023-09-07T02:48:23.387Z,18.80
2023-09-07T02:50:52.069Z,18.79
2023-09-07T02:53:19.774Z,18.81
2023-09-07T02:55:47.270Z,18.82
2023-09-07T02:58:14.992Z,18.85
2023-09-07T03:00:46.337Z,18.74
2023-09-07T03:03:16.286Z,18.73
2023-09-07T03:05:44.774Z,18.72
2023-09-07T03:08:12.357Z,18.74
2023-09-07T03:10:41.328Z,18.71
2023-09-07T03:13:09.042Z,18.68
2023-09-07T03:15:37.048Z,18.62
2023-09-07T03:18:04.841Z,18.56
2023-09-07T03:20:35.620Z,18.52
2023-09-07T03:23:03.823Z,18.51
2023-09-07T03:25:31.475Z,18.52
2023-09-07T03:27:59.008Z,18.55
2023-09-07T03:30:26.539Z,18.53
2023-09-07T03:32:54.064Z,18.52
2023-09-07T03:35:21.674Z,18.52
2023-09-07T03:37:49.072Z,18.49
2023-09-07T03:40:16.581Z,18.48
2023-09-07T03:42:44.859Z,18.46
2023-09-07T03:45:12.457Z,18.39
2023-09-07T03:47:40.314Z,18.39
2023-09-07T03:50:08.124Z,18.39
2023-09-07T03:52:35.631Z,18.40
2023-09-07T03:55:03.424Z,18.39
2023-09-07T03:57:33.749Z,18.27
2023-09-07T04:00:01.667Z,18.21
2023-09-07T04:02:29.570Z,18.13
2023-09-07T04:04:57.205Z,18.12
2023-09-07T04:07:24.688Z,18.11
2023-09-07T04:09:52.183Z,18.13
2023-09-07T04:12:19.644Z,18.12
2023-09-07T04:14:47.138Z,18.15
2023-09-07T04:17:14.612Z,18.16
2023-09-07T04:19:42.017Z,18.14
2023-09-07T04:22:09.400Z,18.13
2023-09-07T04:24:36.849Z,18.07
2023-09-07T04:27:05.188Z,18.06
2023-09-07T04:29:32.630Z,18.06
2023-09-07T04:32:00.035Z,18.06
2023-09-07T04:34:27.480Z,18.03
2023-09-07T04:36:54.898Z,18.03
2023-09-07T04:39:22.300Z,18.03
2023-09-07T04:41:49.783Z,18.03
2023-09-07T04:44:17.198Z,18.03
2023-09-07T04:46:44.648Z,17.99
2023-09-07T04:49:12.060Z,18.03
2023-09-07T04:51:39.518Z,17.97
2023-09-07T04:54:07.012Z,17.95
2023-09-07T04:56:34.411Z,18.02
2023-09-07T04:59:01.812Z,18.04
2023-09-07T05:01:29.719Z,18.06
2023-09-07T05:03:57.524Z,18.01
2023-09-07T05:06:24.933Z,17.93
2023-09-07T05:08:52.303Z,17.97
2023-09-07T05:11:19.681Z,17.97
2023-09-07T05:13:47.150Z,17.96
2023-09-07T05:16:14.653Z,18.01
2023-09-07T05:18:44.287Z,18.07
2023-09-07T05:21:15.917Z,18.06
2023-09-07T05:23:43.973Z,18.02
2023-09-07T05:26:11.793Z,18.11
2023-09-07T05:28:41.908Z,18.09
2023-09-07T05:31:09.562Z,18.14
2023-09-07T05:33:37.196Z,18.20
2023-09-07T05:36:04.841Z,18.22
2023-09-07T05:38:34.047Z,18.21
2023-09-07T05:41:02.064Z,18.28
2023-09-07T05:43:29.725Z,18.26
2023-09-07T05:45:57.218Z,18.31
2023-09-07T05:48:24.685Z,18.37
2023-09-07T05:50:52.181Z,18.38
2023-09-07T05:53:22.815Z,18.39
2023-09-07T05:55:50.271Z,18.44
2023-09-07T05:58:17.754Z,18.49
2023-09-07T06:00:45.309Z,18.53
2023-09-07T06:03:13.065Z,18.58
2023-09-07T06:05:40.891Z,18.60
2023-09-07T06:08:08.910Z,18.67
2023-09-07T06:10:36.546Z,18.70
2023-09-07T06:13:04.746Z,18.70
2023-09-07T06:15:32.588Z,18.70
2023-09-07T06:18:00.297Z,18.74
2023-09-07T06:20:27.833Z,18.74
2023-09-07T06:22:55.312Z,18.76
2023-09-07T06:25:23.579Z,18.81
2023-09-07T06:27:51.045Z,18.88
2023-09-07T06:30:19.739Z,18.88
2023-09-07T06:32:47.184Z,18.92
2023-09-07T06:35:14.841Z,18.93
2023-09-07T06:37:44.558Z,18.94
2023-09-07T06:40:12.541Z,18.93
2023-09-07T06:42:39.968Z,19.01
2023-09-07T06:45:08.496Z,19.07
2023-09-07T06:47:35.913Z,19.14
2023-09-07T06:50:03.658Z,19.18
2023-09-07T06:52:31.197Z,19.22
2023-09-07T06:54:58.687Z,19.24
2023-09-07T06:57:26.186Z,19.31
2023-09-07T06:59:53.706Z,19.37
2023-09-07T07:02:21.108Z,19.43
2023-09-07T07:04:48.567Z,19.47
2023-09-07T07:07:15.998Z,19.52
2023-09-07T07:09:43.499Z,19.59
2023-09-07T07:12:11.049Z,19.65
2023-09-07T07:14:38.508Z,19.71
2023-09-07T07:17:06.472Z,19.78
2023-09-07T07:19:34.324Z,19.83
2023-09-07T07:22:01.885Z,19.88
2023-09-07T07:24:29.439Z,19.95
2023-09-07T07:26:56.790Z,20.02
2023-09-07T07:29:24.299Z,20.06
2023-09-07T07:31:51.717Z,20.10
2023-09-07T07:34:19.172Z,20.16
2023-09-07T07:36:46.633Z,20.23
2023-09-07T07:39:14.203Z,20.28
2023-09-07T07:41:43.904Z,20.34
2023-09-07T07:44:11.495Z,20.41
2023-09-07T07:46:39.047Z,20.46
2023-09-07T07:49:06.550Z,20.51
2023-09-07T07:51:33.991Z,20.55
2023-09-07T07:54:01.542Z,20.61
2023-09-07T07:56:30.749Z,20.67
2023-09-07T07:59:00.016Z,20.75
2023-09-07T08:01:27.657Z,20.80
2023-09-07T08:03:55.410Z,20.86
2023-09-07T08:06:23.019Z,20.93
2023-09-07T08:08:50.410Z,20.99
2023-09-07T08:11:18.193Z,21.04
2023-09-07T08:13:47.833Z,21.14
2023-09-07T08:16:15.459Z,21.17
2023-09-07T08:18:43.076Z,21.24
2023-09-07T08:21:10.654Z,21.28
2023-09-07T08:23:38.088Z,21.37
2023-09-07T08:26:06.617Z,21.37
2023-09-07T08:28:34.361Z,21.48
2023-09-07T08:31:02.434Z,21.56
2023-09-07T08:33:30.723Z,21.58
2023-09-07T08:35:58.990Z,21.64
2023-09-07T08:38:29.664Z,21.70
2023-09-07T08:41:02.679Z,21.78
2023-09-07T08:43:30.631Z,21.77
2023-09-07T08:46:16.062Z,21.82
2023-09-07T08:48:44.930Z,21.83
2023-09-07T08:51:14.286Z,21.93
2023-09-07T08:53:42.464Z,22.00
2023-09-07T08:56:11.431Z,22.08
2023-09-07T08:58:39.159Z,22.20
2023-09-07T09:01:08.170Z,22.20
2023-09-07T09:03:38.674Z,22.27
2023-09-07T09:06:06.834Z,22.31
2023-09-07T09:08:50.307Z,22.41
2023-09-07T09:11:18.640Z,22.25
2023-09-07T09:13:46.925Z,22.28
2023-09-07T09:16:15.487Z,22.45
2023-09-07T09:18:56.632Z,22.55
2023-09-07T09:21:26.498Z,22.56
2023-09-07T09:23:56.246Z,22.59
2023-09-07T09:26:26.383Z,22.70
2023-09-07T09:28:57.146Z,22.83
2023-09-07T09:31:26.138Z,22.83
2023-09-07T09:33:54.380Z,22.95
2023-09-07T09:36:23.316Z,22.98
2023-09-07T09:38:54.300Z,22.98
2023-09-07T09:41:24.874Z,23.05
2023-09-07T09:43:54.095Z,23.11
2023-09-07T09:46:23.405Z,23.11
2023-09-07T09:48:51.164Z,23.17
2023-09-07T09:51:19.673Z,23.20
2023-09-07T09:53:48.157Z,23.26
2023-09-07T09:56:15.648Z,23.33
2023-09-07T09:58:43.078Z,23.40
2023-09-07T10:01:12.222Z,23.52
2023-09-07T10:03:51.769Z,23.60
2023-09-07T10:06:22.294Z,23.57
2023-09-07T10:09:08.096Z,23.60
2023-09-07T10:11:40.775Z,23.59
2023-09-07T10:14:09.152Z,23.69
2023-09-07T10:16:45.292Z,23.84
2023-09-07T10:19:23.460Z,23.82
2023-09-07T10:21:54.272Z,23.84
2023-09-07T10:24:29.835Z,23.92
2023-09-07T10:27:08.239Z,24.05
2023-09-07T10:29:56.401Z,24.04
2023-09-07T10:32:24.832Z,24.03
2023-09-07T10:34:52.470Z,23.99
2023-09-07T10:37:20.964Z,24.07
2023-09-07T10:39:48.408Z,24.11
2023-09-07T10:42:26.204Z,24.15
2023-09-07T10:44:54.370Z,24.15
2023-09-07T10:47:22.253Z,24.21
2023-09-07T10:49:49.954Z,24.22
2023-09-07T10:52:17.945Z,24.25
2023-09-07T10:54:45.485Z,24.34
2023-09-07T10:57:19.221Z,24.38
2023-09-07T10:59:47.772Z,24.42
2023-09-07T11:02:17.417Z,24.35
2023-09-07T11:04:45.205Z,24.35
2023-09-07T11:07:13.487Z,24.35
2023-09-07T11:09:44.973Z,24.38
2023-09-07T11:12:17.418Z,24.45
2023-09-07T11:14:44.977Z,24.49
2023-09-07T11:17:12.453Z,24.53
2023-09-07T11:19:39.876Z,24.63
2023-09-07T11:22:10.391Z,24.78
2023-09-07T11:24:38.195Z,24.84
2023-09-07T11:27:05.949Z,24.77
2023-09-07T11:29:34.282Z,24.77
2023-09-07T11:32:08.963Z,24.83
2023-09-07T11:34:36.789Z,24.80
2023-09-07T11:37:04.728Z,24.86
2023-09-07T11:39:32.171Z,24.89
2023-09-07T11:41:59.562Z,24.89
2023-09-07T11:44:26.932Z,24.91
2023-09-07T11:46:54.394Z,24.96
2023-09-07T11:49:22.840Z,25.02
2023-09-07T11:51:50.621Z,24.96
2023-09-07T11:54:18.636Z,25.03
2023-09-07T11:56:46.894Z,25.08
2023-09-07T11:59:14.289Z,25.09
2023-09-07T12:01:41.879Z,25.13
2023-09-07T12:04:09.897Z,25.12
2023-09-07T12:06:37.724Z,25.15
2023-09-07T12:09:18.375Z,25.15
2023-09-07T12:11:45.780Z,25.26
2023-09-07T12:14:14.456Z,25.34
2023-09-07T12:16:42.060Z,25.35
2023-09-07T12:19:10.257Z,25.45
2023-09-07T12:21:37.716Z,25.42
2023-09-07T12:24:05.403Z,25.43
2023-09-07T12:26:32.961Z,25.49
2023-09-07T12:29:00.534Z,25.47
2023-09-07T12:31:28.093Z,25.46
2023-09-07T12:33:55.581Z,25.47
2023-09-07T12:36:23.248Z,25.48
2023-09-07T12:38:51.199Z,25.56
2023-09-07T12:41:19.020Z,25.53
2023-09-07T12:43:46.807Z,25.59
2023-09-07T12:46:14.906Z,25.66
2023-09-07T12:48:42.401Z,25.57
2023-09-07T12:51:09.780Z,25.56
2023-09-07T12:53:37.165Z,25.59
2023-09-07T12:56:05.067Z,25.59
2023-09-07T12:58:32.581Z,25.64
2023-09-07T13:01:00.015Z,25.67
2023-09-07T13:03:27.552Z,25.60
2023-09-07T13:05:55.157Z,25.66
2023-09-07T13:08:22.616Z,25.77
2023-09-07T13:10:50.030Z,25.74
2023-09-07T13:13:18.465Z,25.67
2023-09-07T13:15:46.031Z,25.68
2023-09-07T13:18:13.741Z,25.67
2023-09-07T13:20:41.156Z,25.74
2023-09-07T13:23:08.560Z,25.77
2023-09-07T13:25:36.099Z,25.76
2023-09-07T13:28:03.690Z,25.79
2023-09-07T13:30:31.098Z,25.80
2023-09-07T13:32:58.560Z,25.78
2023-09-07T13:35:25.972Z,25.91
2023-09-07T13:37:54.029Z,25.97
2023-09-07T13:40:25.256Z,25.90
2023-09-07T13:42:52.717Z,25.86
2023-09-07T13:45:20.154Z,25.91
2023-09-07T13:47:47.780Z,25.89
2023-09-07T13:50:15.423Z,25.86
2023-09-07T13:52:42.837Z,25.91
2023-09-07T13:55:10.334Z,25.93
2023-09-07T13:57:37.818Z,25.95
2023-09-07T14:00:07.167Z,25.97
2023-09-07T14:02:34.793Z,25.98
2023-09-07T14:05:02.329Z,25.94
2023-09-07T14:07:29.912Z,25.94
2023-09-07T14:09:57.661Z,25.92
2023-09-07T14:12:25.110Z,25.88
2023-09-07T14:14:52.576Z,25.88
2023-09-07T14:17:20.052Z,26.01
2023-09-07T14:19:47.520Z,26.14
2023-09-07T14:22:14.967Z,26.09
2023-09-07T14:24:42.390Z,26.05
2023-09-07T14:27:10.270Z,26.15
2023-09-07T14:29:37.754Z,26.19
2023-09-07T14:32:05.833Z,26.21
2023-09-07T14:34:33.299Z,26.26
2023-09-07T14:37:01.006Z,26.32
2023-09-07T14:39:28.749Z,26.41
2023-09-07T14:41:56.244Z,26.36
2023-09-07T14:44:23.883Z,26.43
2023-09-07T14:46:51.849Z,26.48
2023-09-07T14:49:19.513Z,26.56
2023-09-07T14:51:47.205Z,26.63
2023-09-07T14:54:14.760Z,26.67
2023-09-07T14:56:42.198Z,26.71
2023-09-07T14:59:09.805Z,26.79
2023-09-07T15:01:37.281Z,26.83
2023-09-07T15:04:04.930Z,26.85
2023-09-07T15:06:34.607Z,26.91
2023-09-07T15:09:02.177Z,26.87
2023-09-07T15:11:29.822Z,26.95
2023-09-07T15:13:57.335Z,26.93
2023-09-07T15:16:25.985Z,27.04
2023-09-07T15:18:53.626Z,27.06
2023-09-07T15:21:22.001Z,27.16
2023-09-07T15:23:49.891Z,27.21
2023-09-07T15:26:17.463Z,27.25
2023-09-07T15:28:44.912Z,27.31
2023-09-07T15:31:12.386Z,27.36
2023-09-07T15:33:39.812Z,27.39
2023-09-07T15:36:07.389Z,27.49
2023-09-07T15:38:35.179Z,27.50
2023-09-07T15:41:05.997Z,27.51
2023-09-07T15:43:33.841Z,27.54
2023-09-07T15:46:01.331Z,27.59
2023-09-07T15:48:29.044Z,27.70
2023-09-07T15:50:57.237Z,27.76
2023-09-07T15:53:24.691Z,27.78
2023-09-07T15:55:52.503Z,27.75
2023-09-07T15:58:20.101Z,27.75
2023-09-07T16:00:47.532Z,27.80
2023-09-07T16:03:15.976Z,27.78
2023-09-07T16:05:43.519Z,27.76
2023-09-07T16:08:11.132Z,27.69
2023-09-07T16:10:39.622Z,27.73
2023-09-07T16:13:07.361Z,27.69
2023-09-07T16:15:34.773Z,27.59
2023-09-07T16:18:02.289Z,27.61
2023-09-07T16:20:29.901Z,27.55
2023-09-07T16:22:57.362Z,27.51
2023-09-07T16:25:24.788Z,27.44
2023-09-07T16:27:53.299Z,27.31
2023-09-07T16:30:20.914Z,27.06
2023-09-07T16:32:48.417Z,26.81
2023-09-07T16:35:15.955Z,26.60
2023-09-07T16:37:43.404Z,26.49
2023-09-07T16:40:12.426Z,26.43
2023-09-07T16:42:39.840Z,26.37
2023-09-07T16:45:08.303Z,26.31
2023-09-07T16:47:35.851Z,26.17
2023-09-07T16:50:03.410Z,26.11
2023-09-07T16:52:32.982Z,26.02
2023-09-07T16:55:00.509Z,25.98
2023-09-07T16:57:29.362Z,25.93
2023-09-07T16:59:57.822Z,25.88
2023-09-07T17:02:26.142Z,25.82
2023-09-07T17:04:53.746Z,25.77
2023-09-07T17:07:21.658Z,25.67
2023-09-07T17:09:49.146Z,25.59
2023-09-07T17:12:17.533Z,25.57
2023-09-07T17:14:47.732Z,25.48
2023-09-07T17:17:16.334Z,25.37
2023-09-07T17:19:43.994Z,25.36
2023-09-07T17:22:12.912Z,25.29
2023-09-07T17:24:40.472Z,25.24
2023-09-07T17:27:07.870Z,25.20
2023-09-07T17:29:35.441Z,25.14
2023-09-07T17:32:02.975Z,25.16
2023-09-07T17:34:34.382Z,25.09
2023-09-07T17:37:01.941Z,25.02
2023-09-07T17:39:29.623Z,24.96
2023-09-07T17:41:57.114Z,24.94
2023-09-07T17:44:24.599Z,24.94
2023-09-07T17:46:52.163Z,24.89
2023-09-07T17:49:19.664Z,24.86
2023-09-07T17:51:47.201Z,24.79
2023-09-07T17:54:15.023Z,24.72
2023-09-07T17:56:42.779Z,24.66
2023-09-07T17:59:10.540Z,24.61
2023-09-07T18:01:38.197Z,24.54
2023-09-07T18:04:05.981Z,24.47
2023-09-07T18:06:34.913Z,24.47
2023-09-07T18:09:02.503Z,24.43
2023-09-07T18:11:30.148Z,24.36
2023-09-07T18:14:11.579Z,24.35
2023-09-07T18:16:42.487Z,24.29
2023-09-07T18:19:10.689Z,24.28
2023-09-07T18:21:39.248Z,24.24
2023-09-07T18:24:07.122Z,24.20
2023-09-07T18:26:34.631Z,24.17
2023-09-07T18:29:02.215Z,24.14
2023-09-07T18:31:29.740Z,24.11
2023-09-07T18:33:57.361Z,24.06
2023-09-07T18:36:24.894Z,24.05
2023-09-07T18:38:52.377Z,24.03
2023-09-07T18:41:19.816Z,23.96
2023-09-07T18:43:47.272Z,23.92
2023-09-07T18:46:14.827Z,23.87
2023-09-07T18:48:42.328Z,23.87
2023-09-07T18:51:10.092Z,23.84
2023-09-07T18:53:37.823Z,23.86
2023-09-07T18:56:07.213Z,23.83
2023-09-07T18:58:35.758Z,23.80
2023-09-07T19:01:29.849Z,23.78
2023-09-07T19:04:12.517Z,23.73
2023-09-07T19:06:40.551Z,23.64
2023-09-07T19:09:09.351Z,23.64
2023-09-07T19:11:37.328Z,23.60
2023-09-07T19:14:05.483Z,23.58
2023-09-07T19:16:33.033Z,23.57
2023-09-07T19:19:00.672Z,23.54
2023-09-07T19:21:32.106Z,23.47
2023-09-07T19:24:01.020Z,23.44
2023-09-07T19:26:33.115Z,23.45
2023-09-07T19:29:02.452Z,23.41
2023-09-07T19:31:30.069Z,23.37
2023-09-07T19:33:58.667Z,23.36
2023-09-07T19:36:27.717Z,23.32
2023-09-07T19:38:58.746Z,23.28
2023-09-07T19:41:35.631Z,23.22
2023-09-07T19:44:04.018Z,23.17
2023-09-07T19:49:05.115Z,23.13
2023-09-07T19:51:33.924Z,23.11
2023-09-07T19:54:01.581Z,23.08
2023-09-07T19:56:29.490Z,23.04
2023-09-07T19:58:57.150Z,23.01
2023-09-07T20:01:25.084Z,22.92
2023-09-07T20:03:55.172Z,22.90
2023-09-07T20:06:25.725Z,22.87
2023-09-07T20:08:53.537Z,22.84
2023-09-07T20:11:21.058Z,22.83
2023-09-07T20:13:48.736Z,22.79
2023-09-07T20:16:17.358Z,22.80
2023-09-07T20:18:47.505Z,22.77
2023-09-07T20:21:15.109Z,22.75
2023-09-07T20:23:43.069Z,22.74
2023-09-07T20:26:10.652Z,22.71
2023-09-07T20:28:38.526Z,22.67
2023-09-07T20:31:07.234Z,22.66
2023-09-07T20:33:34.862Z,22.64
2023-09-07T20:36:03.063Z,22.56
2023-09-07T20:38:31.658Z,22.54
2023-09-07T20:41:00.704Z,22.53
2023-09-07T20:43:28.799Z,22.52
2023-09-07T20:45:56.571Z,22.47
2023-09-07T20:48:24.561Z,22.48
2023-09-07T20:50:52.284Z,22.46
2023-09-07T20:53:21.543Z,22.43
2023-09-07T20:55:49.380Z,22.39
2023-09-07T20:58:17.014Z,22.39
2023-09-07T21:00:44.569Z,22.37
2023-09-07T21:03:12.278Z,22.33
2023-09-07T21:05:40.163Z,22.32
2023-09-07T21:08:07.686Z,22.25
2023-09-07T21:10:35.415Z,22.23
2023-09-07T21:13:03.011Z,22.21
2023-09-07T21:15:30.512Z,22.18
2023-09-07T21:17:59.252Z,22.14
2023-09-07T21:20:27.148Z,22.11
2023-09-07T21:22:54.488Z,22.12
2023-09-07T21:25:22.028Z,22.12
2023-09-07T21:27:49.555Z,22.12
2023-09-07T21:30:17.111Z,22.06
2023-09-07T21:32:44.564Z,22.06
2023-09-07T21:35:12.171Z,22.02
2023-09-07T21:37:39.684Z,22.01
2023-09-07T21:40:07.815Z,22.01
2023-09-07T21:42:35.268Z,21.98
2023-09-07T21:45:02.767Z,21.98
2023-09-07T21:47:31.787Z,21.93
2023-09-07T21:50:03.959Z,21.86
2023-09-07T21:52:31.579Z,21.88
2023-09-07T21:54:59.015Z,21.86
2023-09-07T21:57:26.571Z,21.85
2023-09-07T21:59:54.547Z,21.81
2023-09-07T22:02:23.786Z,21.77
2023-09-07T22:04:52.635Z,21.73
2023-09-07T22:07:20.534Z,21.74
2023-09-07T22:09:49.430Z,21.72
2023-09-07T22:12:17.059Z,21.69
2023-09-07T22:14:45.043Z,21.65
2023-09-07T22:17:15.595Z,21.65
2023-09-07T22:19:43.119Z,21.59
2023-09-07T22:22:12.700Z,21.54
2023-09-07T22:24:40.199Z,21.46
2023-09-07T22:27:07.824Z,21.29
2023-09-07T22:29:36.287Z,21.16
2023-09-07T22:32:04.142Z,21.06
2023-09-07T22:34:32.730Z,20.86
2023-09-07T22:37:03.415Z,20.71
2023-09-07T22:39:30.898Z,20.83
2023-09-07T22:41:58.549Z,20.93
2023-09-07T22:44:26.160Z,20.97
2023-09-07T22:46:55.020Z,20.93
2023-09-07T22:49:22.618Z,20.88
2023-09-07T22:51:50.108Z,20.83
2023-09-07T22:54:18.026Z,20.82
2023-09-07T22:56:45.534Z,20.80
2023-09-07T22:59:13.235Z,20.75
2023-09-07T23:01:40.736Z,20.66
2023-09-07T23:04:08.869Z,20.63
2023-09-07T23:06:36.506Z,20.56
2023-09-07T23:09:08.012Z,20.52
2023-09-07T23:11:35.678Z,20.50
2023-09-07T23:14:03.330Z,20.48
2023-09-07T23:16:30.929Z,20.43
2023-09-07T23:18:58.617Z,20.44
2023-09-07T23:21:26.413Z,20.41
2023-09-07T23:23:53.961Z,20.37
2023-09-07T23:26:22.448Z,20.36
2023-09-07T23:28:49.959Z,20.35
2023-09-07T23:31:19.053Z,20.34
2023-09-07T23:33:46.690Z,20.29
2023-09-07T23:36:14.202Z,20.28
2023-09-07T23:38:42.773Z,20.28
2023-09-07T23:41:10.825Z,20.24
2023-09-07T23:43:38.337Z,20.24
2023-09-07T23:46:05.869Z,20.25
2023-09-07T23:48:33.610Z,20.20
2023-09-07T23:51:01.363Z,20.19
2023-09-07T23:53:28.990Z,20.14
2023-09-07T23:55:56.741Z,20.09
2023-09-07T23:58:24.282Z,20.09
